Time;durP1;ratioP1;P1;durP2;ratioP2;P2;SDS_P1;SDS_P2;PMS_P1;PMS_P2;Temp;Humidity;BMP_temperature;BMP_pressure;BME280_temperature;BME280_humidity;BME280_pressure;Samples;Min_cycle;Max_cycle;Signal;HPM_P1;HPM_P2
2024/01/12 00:01:37;;;;;;;0.98;0.95;;;-3.40;99.90;;;;;;5084828;28;20388;-71
2024/01/12 00:04:04;;;;;;;1.50;1.40;;;-3.40;99.90;;;;;;5081923;28;20028;-71
2024/01/12 00:06:30;;;;;;;3.72;2.20;;;-3.50;99.90;;;;;;5080937;28;20032;-71
2024/01/12 00:08:56;;;;;;;0.82;0.73;;;-3.60;99.90;;;;;;5088098;28;20055;-71
2024/01/12 00:11:22;;;;;;;1.80;1.70;;;-3.60;99.90;;;;;;5083780;28;20028;-71
2024/01/12 00:13:49;;;;;;;1.90;1.65;;;-3.60;99.90;;;;;;5065963;28;20052;-71
2024/01/12 00:16:20;;;;;;;3.33;2.03;;;-3.60;99.90;;;;;;5079484;28;20478;-71
2024/01/12 00:18:46;;;;;;;1.47;1.37;;;-3.60;99.90;;;;;;5084573;28;20032;-71
2024/01/12 00:21:12;;;;;;;2.20;1.23;;;-3.60;99.90;;;;;;5082778;28;20039;-71
2024/01/12 00:23:38;;;;;;;0.90;0.73;;;-3.60;99.90;;;;;;5084572;28;20028;-71
2024/01/12 00:26:04;;;;;;;2.15;1.95;;;-3.60;99.90;;;;;;5080589;28;20036;-71
2024/01/12 00:28:32;;;;;;;4.18;0.50;;;-3.70;99.90;;;;;;5077011;28;20040;-71
2024/01/12 00:30:58;;;;;;;3.70;2.33;;;-3.80;99.90;;;;;;5082951;28;20385;-71
2024/01/12 00:33:24;;;;;;;3.30;0.95;;;-3.80;99.90;;;;;;5082782;28;20020;-71
2024/01/12 00:35:50;;;;;;;2.22;1.45;;;-3.80;99.90;;;;;;5081501;28;20033;-71
2024/01/12 00:38:16;;;;;;;0.35;0.35;;;-3.80;99.90;;;;;;5081915;28;20045;-71
2024/01/12 00:40:43;;;;;;;1.00;1.00;;;-3.80;99.90;;;;;;5085251;28;20035;-71
2024/01/12 00:43:09;;;;;;;0.52;0.52;;;-3.90;99.90;;;;;;5065935;28;20047;-71
2024/01/12 00:45:36;;;;;;;2.72;1.55;;;-3.90;99.90;;;;;;5082281;28;20469;-71
2024/01/12 00:48:04;;;;;;;6.38;0.75;;;-3.80;1.00;;;;;;5077386;28;20035;-71
2024/01/12 00:50:30;;;;;;;0.85;0.80;;;-3.80;1.00;;;;;;5077567;28;20504;-71
2024/01/12 00:52:56;;;;;;;5.57;3.25;;;-3.80;1.00;;;;;;5087578;28;20043;-71
2024/01/12 00:55:23;;;;;;;2.35;2.17;;;-3.80;1.00;;;;;;5082470;28;20032;-70
2024/01/12 00:57:49;;;;;;;1.15;0.65;;;-3.80;1.00;;;;;;5065018;28;20043;-72
2024/01/12 01:00:15;;;;;;;1.98;1.88;;;-3.90;1.00;;;;;;5087535;28;20040;-70
2024/01/12 01:02:41;;;;;;;3.75;2.47;;;-3.90;1.00;;;;;;5088355;28;20035;-72
2024/01/12 01:05:07;;;;;;;2.17;0.88;;;-3.90;1.00;;;;;;5090011;28;20048;-71
2024/01/12 01:07:34;;;;;;;5.07;2.28;;;-4.00;1.00;;;;;;5073710;28;20248;-71
2024/01/12 01:10:00;;;;;;;0.90;0.90;;;-3.90;1.00;;;;;;5083556;28;20043;-71
2024/01/12 01:12:26;;;;;;;0.68;0.68;;;-3.90;1.00;;;;;;5083795;28;20031;-71
2024/01/12 01:14:52;;;;;;;1.85;1.75;;;-4.00;1.00;;;;;;5087437;28;20389;-71
2024/01/12 01:17:20;;;;;;;1.05;0.90;;;-4.00;1.00;;;;;;5084123;28;20028;-71
2024/01/12 01:19:46;;;;;;;0.88;0.88;;;-4.00;1.00;;;;;;5061599;28;20051;-71
2024/01/12 01:22:12;;;;;;;1.15;1.05;;;-4.10;1.00;;;;;;5081993;28;20376;-71
2024/01/12 01:24:38;;;;;;;4.55;3.50;;;-4.10;1.00;;;;;;5083144;28;20024;-71
2024/01/12 01:27:07;;;;;;;2.20;2.00;;;-4.20;1.00;;;;;;5084630;28;20059;-71
2024/01/12 01:29:33;;;;;;;3.55;1.80;;;-4.20;1.00;;;;;;5080469;28;20039;-71
2024/01/12 01:31:59;;;;;;;0.20;0.20;;;-4.30;1.00;;;;;;5077105;28;20036;-72
2024/01/12 01:34:25;;;;;;;2.78;2.40;;;-4.20;11.20;;;;;;5084096;28;20029;-71
2024/01/12 01:36:51;;;;;;;0.88;0.88;;;-4.10;63.30;;;;;;5083897;28;20061;-71
2024/01/12 01:39:17;;;;;;;3.50;1.48;;;-4.10;97.70;;;;;;5072111;28;20040;-71
2024/01/12 01:41:45;;;;;;;5.07;1.38;;;-4.10;99.90;;;;;;5077326;28;20121;-71
2024/01/12 01:44:11;;;;;;;1.40;1.33;;;-4.20;99.90;;;;;;5081295;28;20374;-72
2024/01/12 01:46:37;;;;;;;2.38;1.98;;;-4.20;99.90;;;;;;5082499;28;20048;-71
2024/01/12 01:49:03;;;;;;;9.32;1.52;;;-4.10;99.90;;;;;;5082656;28;20063;-70
2024/01/12 01:51:29;;;;;;;5.97;2.42;;;-4.10;99.90;;;;;;5080237;28;20809;-71
2024/01/12 01:53:55;;;;;;;4.68;2.80;;;-4.20;99.90;;;;;;5074581;28;20032;-71
2024/01/12 01:56:22;;;;;;;2.05;1.85;;;-4.30;99.90;;;;;;5082326;28;20031;-71
2024/01/12 01:58:48;;;;;;;0.30;0.30;;;-4.40;99.90;;;;;;5084619;28;20036;-70
2024/01/12 02:01:16;;;;;;;1.35;1.23;;;-4.40;99.90;;;;;;5091946;28;20035;-70
2024/01/12 02:03:43;;;;;;;4.60;1.90;;;-4.50;99.90;;;;;;5078174;28;20029;-71
2024/01/12 02:06:10;;;;;;;2.95;0.63;;;-4.70;99.90;;;;;;5067527;28;20621;-71
2024/01/12 02:08:37;;;;;;;0.63;0.52;;;-4.80;99.90;;;;;;5086181;28;20036;-71
2024/01/12 02:11:04;;;;;;;0.32;0.30;;;-4.90;99.90;;;;;;5079913;28;20032;-70
2024/01/12 02:13:30;;;;;;;1.95;1.85;;;-4.80;99.90;;;;;;5064648;28;20040;-70
2024/01/12 02:15:57;;;;;;;2.13;1.98;;;-4.90;99.90;;;;;;5081229;28;20043;-71
2024/01/12 02:18:23;;;;;;;0.55;0.55;;;-5.00;99.90;;;;;;5080003;28;20033;-70
2024/01/12 02:20:55;;;;;;;0.10;0.10;;;-5.00;99.90;;;;;;5080424;28;20029;-71
2024/01/12 02:23:22;;;;;;;1.35;1.27;;;-5.10;99.90;;;;;;5080756;28;20024;-70
2024/01/12 02:25:48;;;;;;;1.27;1.17;;;-5.20;93.90;;;;;;5081904;28;20029;-70
2024/01/12 02:28:15;;;;;;;1.20;1.13;;;-5.20;95.60;;;;;;5085812;28;20032;-71
2024/01/12 02:30:42;;;;;;;11.05;3.40;;;-5.30;92.90;;;;;;5085526;28;20024;-72
2024/01/12 02:33:09;;;;;;;1.20;0.90;;;-5.20;91.10;;;;;;5080776;28;20044;-72
2024/01/12 02:35:35;;;;;;;2.35;2.17;;;-5.30;84.90;;;;;;5075925;28;20458;-72
2024/01/12 02:38:01;;;;;;;0.30;0.30;;;-5.40;65.80;;;;;;5080964;28;20051;-72
2024/01/12 02:40:27;;;;;;;0.65;0.65;;;-5.40;65.80;;;;;;5083592;28;20039;-72
2024/01/12 02:42:54;;;;;;;0.20;0.20;;;-5.30;54.30;;;;;;5080458;28;20031;-72
2024/01/12 02:45:21;;;;;;;1.73;1.10;;;-5.50;34.90;;;;;;5064035;28;20031;-72
2024/01/12 02:47:47;;;;;;;1.48;1.38;;;-5.50;30.80;;;;;;5075038;28;20033;-72
2024/01/12 02:50:13;;;;;;;2.13;2.00;;;-5.60;24.10;;;;;;5086115;28;20058;-71
2024/01/12 02:52:40;;;;;;;0.30;0.30;;;-5.60;28.40;;;;;;5083589;28;20045;-71
2024/01/12 02:55:06;;;;;;;1.65;1.15;;;-5.70;16.90;;;;;;5081669;28;20043;-70
2024/01/12 02:57:32;;;;;;;0.75;0.75;;;-5.80;5.70;;;;;;5078272;28;20029;-71
2024/01/12 02:59:58;;;;;;;1.45;1.35;;;-5.80;9.40;;;;;;5081897;28;20036;-72
2024/01/12 03:02:25;;;;;;;2.08;1.88;;;-5.80;8.50;;;;;;5083107;28;20476;-70
2024/01/12 03:04:51;;;;;;;2.60;0.98;;;-5.80;4.90;;;;;;5061858;28;20040;-70
2024/01/12 03:07:17;;;;;;;1.65;1.55;;;-5.80;7.30;;;;;;5076331;28;20040;-70
2024/01/12 03:09:43;;;;;;;0.85;0.85;;;-5.90;1.00;;;;;;5075405;28;20032;-71
2024/01/12 03:12:10;;;;;;;13.30;2.15;;;-6.00;5.50;;;;;;5065210;28;20063;-70
2024/01/12 03:14:36;;;;;;;0.70;0.70;;;-6.00;11.90;;;;;;5080041;28;20044;-71
2024/01/12 03:17:02;;;;;;;3.22;2.90;;;-6.00;21.30;;;;;;5077201;28;20037;-70
2024/01/12 03:19:28;;;;;;;1.35;1.17;;;-6.10;20.60;;;;;;5079301;28;20483;-71
2024/01/12 03:21:54;;;;;;;0.52;0.52;;;-6.00;26.30;;;;;;5085152;28;20032;-74
2024/01/12 03:24:20;;;;;;;0.22;0.22;;;-6.00;37.60;;;;;;5085592;28;20032;-70
2024/01/12 03:26:47;;;;;;;1.35;0.52;;;-5.90;39.20;;;;;;5079569;28;20044;-72
2024/01/12 03:29:13;;;;;;;1.23;1.15;;;-5.80;29.20;;;;;;5082768;28;20131;-72
2024/01/12 03:31:39;;;;;;;0.28;0.28;;;-5.80;14.80;;;;;;5087106;28;20025;-72
2024/01/12 03:34:05;;;;;;;0.20;0.20;;;-5.90;1.00;;;;;;5078708;28;20036;-72
2024/01/12 03:36:31;;;;;;;4.68;1.58;;;-5.90;1.00;;;;;;5082681;28;20040;-72
2024/01/12 03:38:57;;;;;;;0.50;0.50;;;-5.90;1.00;;;;;;5084214;28;20614;-72
2024/01/12 03:41:24;;;;;;;1.80;1.20;;;-6.00;1.00;;;;;;5077180;28;20612;-72
2024/01/12 03:43:50;;;;;;;1.40;1.30;;;-6.00;1.00;;;;;;5086401;28;20031;-72
2024/01/12 03:46:16;;;;;;;0.28;0.28;;;-6.10;1.00;;;;;;5081377;28;20369;-72
2024/01/12 03:48:43;;;;;;;6.40;0.98;;;-6.10;1.00;;;;;;5079763;28;20389;-72
2024/01/12 03:51:09;;;;;;;2.40;2.22;;;-6.30;1.00;;;;;;5078350;28;20059;-71
2024/01/12 03:53:35;;;;;;;0.13;0.13;;;-6.20;1.00;;;;;;5086395;28;20048;-72
2024/01/12 03:56:02;;;;;;;0.35;0.35;;;-6.20;1.00;;;;;;5080487;28;20039;-72
2024/01/12 03:58:29;;;;;;;1.05;0.57;;;-6.30;1.00;;;;;;5078002;28;20477;-72
2024/01/12 04:00:55;;;;;;;0.90;0.90;;;-6.30;1.00;;;;;;5076164;28;20059;-72
2024/01/12 04:03:21;;;;;;;0.77;0.77;;;-6.20;1.00;;;;;;5081963;28;20028;-72
2024/01/12 04:05:47;;;;;;;1.20;1.10;;;-6.30;1.00;;;;;;5086580;28;20046;-72
2024/01/12 04:08:13;;;;;;;3.33;1.58;;;-6.20;1.00;;;;;;5079187;28;20036;-72
2024/01/12 04:10:39;;;;;;;0.25;0.25;;;-6.20;1.00;;;;;;5085567;28;20024;-71
2024/01/12 04:13:06;;;;;;;2.38;1.42;;;-6.30;1.00;;;;;;5076414;28;20032;-71
2024/01/12 04:15:32;;;;;;;3.95;1.40;;;-6.40;1.00;;;;;;5089557;28;20024;-72
2024/01/12 04:17:58;;;;;;;2.38;0.57;;;-6.50;1.00;;;;;;5087187;28;20029;-72
2024/01/12 04:20:24;;;;;;;0.35;0.35;;;-6.60;1.00;;;;;;5068254;28;20028;-72
2024/01/12 04:22:50;;;;;;;0.68;0.65;;;-6.60;1.00;;;;;;5080261;28;20037;-72
2024/01/12 04:25:16;;;;;;;2.38;0.82;;;-6.70;1.00;;;;;;5085503;28;20043;-72
2024/01/12 04:27:42;;;;;;;2.92;1.80;;;-6.80;1.00;;;;;;5084531;28;20036;-72
2024/01/12 04:30:09;;;;;;;0.75;0.75;;;-6.70;1.00;;;;;;5084410;28;20358;-72
2024/01/12 04:32:35;;;;;;;0.95;0.95;;;-6.70;1.00;;;;;;5082573;28;20096;-72
2024/01/12 04:35:01;;;;;;;2.17;1.85;;;-6.70;1.00;;;;;;5089341;28;20036;-72
2024/01/12 04:37:27;;;;;;;0.20;0.20;;;-6.70;1.00;;;;;;5083949;28;20067;-72
2024/01/12 04:39:53;;;;;;;1.73;1.63;;;-6.70;1.00;;;;;;5086054;28;20024;-72
2024/01/12 04:42:20;;;;;;;3.28;2.97;;;-6.80;1.00;;;;;;5083862;28;20154;-72
2024/01/12 04:44:46;;;;;;;0.22;0.22;;;-6.90;1.00;;;;;;5065366;28;20059;-72
2024/01/12 04:47:12;;;;;;;1.00;1.00;;;-6.90;1.00;;;;;;5083426;28;20036;-71
2024/01/12 04:49:38;;;;;;;2.72;2.53;;;-6.80;1.00;;;;;;5086517;28;20400;-72
2024/01/12 04:52:05;;;;;;;0.80;0.80;;;-7.00;1.00;;;;;;5080381;28;20495;-72
2024/01/12 04:54:31;;;;;;;1.25;0.93;;;-7.00;1.00;;;;;;5078912;28;20036;-72
2024/01/12 04:56:57;;;;;;;2.05;1.95;;;-7.10;1.00;;;;;;5088219;28;20472;-72
2024/01/12 04:59:24;;;;;;;6.60;2.97;;;-7.10;1.00;;;;;;5082677;28;20036;-71
2024/01/12 05:01:51;;;;;;;2.50;1.98;;;-7.10;1.00;;;;;;5080690;28;20047;-72
2024/01/12 05:04:17;;;;;;;0.28;0.28;;;-7.00;1.00;;;;;;5083441;28;20520;-72
2024/01/12 05:06:43;;;;;;;0.60;0.60;;;-6.90;1.00;;;;;;5081487;28;20036;-71
2024/01/12 05:09:09;;;;;;;3.03;2.40;;;-6.80;1.00;;;;;;5075784;28;20041;-73
2024/01/12 05:11:35;;;;;;;0.75;0.75;;;-6.70;1.00;;;;;;5063958;28;20043;-73
2024/01/12 05:14:02;;;;;;;2.97;2.38;;;-6.70;1.00;;;;;;5084030;28;20040;-73
2024/01/12 05:16:28;;;;;;;0.77;0.57;;;-6.60;1.00;;;;;;5079599;28;20029;-73
2024/01/12 05:18:54;;;;;;;0.20;0.20;;;-6.60;1.00;;;;;;5079165;28;20028;-73
2024/01/12 05:21:21;;;;;;;1.27;1.20;;;-6.70;99.90;;;;;;5082490;28;20392;-74
2024/01/12 05:23:47;;;;;;;1.05;0.98;;;-6.70;99.90;;;;;;5083065;28;20037;-74
2024/01/12 05:26:14;;;;;;;0.70;0.70;;;-6.60;99.90;;;;;;5083278;28;20081;-74
2024/01/12 05:28:40;;;;;;;0.20;0.20;;;-6.70;99.90;;;;;;5080929;28;20045;-74
2024/01/12 05:31:10;;;;;;;3.80;1.70;;;-6.60;99.90;;;;;;5087544;28;20028;-73
2024/01/12 05:33:36;;;;;;;1.33;0.90;;;-6.70;1.00;;;;;;5085201;28;20485;-74
2024/01/12 05:36:02;;;;;;;3.20;1.65;;;-6.80;1.00;;;;;;5070732;28;20052;-73
2024/01/12 05:38:28;;;;;;;0.95;0.95;;;-6.80;1.00;;;;;;5083579;28;20468;-73
2024/01/12 05:40:54;;;;;;;2.40;1.85;;;-6.70;1.00;;;;;;5083375;28;20043;-74
2024/01/12 05:43:21;;;;;;;2.30;0.73;;;-6.60;1.00;;;;;;5087459;28;20032;-73
2024/01/12 05:45:47;;;;;;;3.33;3.03;;;-6.60;1.00;;;;;;5084381;28;20457;-75
2024/01/12 05:48:13;;;;;;;3.40;3.17;;;-6.50;1.00;;;;;;5076518;28;20032;-74
2024/01/12 05:50:39;;;;;;;1.38;1.38;;;-6.40;1.00;;;;;;5074509;28;20033;-74
2024/01/12 05:53:06;;;;;;;2.40;2.17;;;-6.40;1.00;;;;;;5085904;28;20374;-73
2024/01/12 05:55:32;;;;;;;0.82;0.43;;;-6.30;1.00;;;;;;5089152;28;20036;-74
2024/01/12 05:57:58;;;;;;;1.30;1.25;;;-6.20;1.00;;;;;;5083861;28;20522;-73
2024/01/12 06:00:24;;;;;;;2.30;2.15;;;-6.10;1.00;;;;;;5075192;28;20034;-74
2024/01/12 06:02:51;;;;;;;3.28;1.80;;;-6.00;1.00;;;;;;5086513;28;20035;-74
2024/01/12 06:05:17;;;;;;;3.05;1.95;;;-5.90;1.00;;;;;;5079413;28;20040;-74
2024/01/12 06:07:44;;;;;;;2.50;2.33;;;-5.80;1.00;;;;;;5079449;28;20508;-74
2024/01/12 06:10:12;;;;;;;2.17;2.03;;;-5.80;1.00;;;;;;5076653;28;20036;-73
2024/01/12 06:12:38;;;;;;;2.17;1.92;;;-5.70;1.00;;;;;;5078294;28;20041;-74
2024/01/12 06:15:05;;;;;;;1.77;1.67;;;-5.70;1.00;;;;;;5084360;28;20025;-73
2024/01/12 06:17:31;;;;;;;3.78;0.80;;;-5.70;1.00;;;;;;5078236;28;20025;-74
2024/01/12 06:19:58;;;;;;;2.30;2.10;;;-5.60;1.00;;;;;;5064089;28;20036;-74
2024/01/12 06:22:24;;;;;;;2.08;1.20;;;-5.60;1.00;;;;;;5081283;28;20025;-74
2024/01/12 06:24:50;;;;;;;2.20;2.08;;;-5.50;1.00;;;;;;5085232;28;20028;-75
2024/01/12 06:27:16;;;;;;;0.22;0.22;;;-5.50;1.00;;;;;;5082561;28;20025;-74
2024/01/12 06:29:42;;;;;;;2.05;1.80;;;-5.40;1.00;;;;;;5078770;28;20040;-73
2024/01/12 06:32:08;;;;;;;4.65;1.40;;;-5.30;1.00;;;;;;5074813;28;20047;-73
2024/01/12 06:34:38;;;;;;;4.25;2.75;;;-5.30;1.00;;;;;;5080998;28;20039;-73
2024/01/12 06:37:05;;;;;;;2.72;1.95;;;-5.20;1.00;;;;;;5076184;28;20045;-73
2024/01/12 06:39:31;;;;;;;2.33;1.70;;;-5.20;1.00;;;;;;5084248;28;20020;-73
2024/01/12 06:41:58;;;;;;;0.25;0.25;;;-5.10;1.00;;;;;;5087364;28;20032;-73
2024/01/12 06:44:24;;;;;;;2.00;1.38;;;-5.00;1.00;;;;;;5072058;28;20024;-73
2024/01/12 06:46:51;;;;;;;7.70;3.05;;;-4.90;1.00;;;;;;5060601;28;20032;-73
2024/01/12 06:49:17;;;;;;;2.85;2.67;;;-4.90;1.00;;;;;;5079932;28;20032;-75
2024/01/12 06:51:43;;;;;;;5.70;2.28;;;-4.80;1.00;;;;;;5078527;28;20044;-74
2024/01/12 06:54:10;;;;;;;4.63;3.83;;;-4.80;1.00;;;;;;5073487;28;20032;-74
2024/01/12 06:56:37;;;;;;;2.95;2.08;;;-4.80;1.00;;;;;;5079380;28;20039;-76
2024/01/12 06:59:04;;;;;;;1.95;1.85;;;-4.70;1.00;;;;;;5079696;28;20033;-74
2024/01/12 07:01:31;;;;;;;1.65;0.70;;;-4.70;1.00;;;;;;5078333;28;20047;-76
2024/01/12 07:03:57;;;;;;;0.95;0.95;;;-4.70;1.00;;;;;;5076467;28;20040;-76
2024/01/12 07:06:23;;;;;;;1.15;1.15;;;-4.60;1.00;;;;;;5079619;28;20039;-76
2024/01/12 07:08:49;;;;;;;1.55;1.45;;;-4.60;1.00;;;;;;5078470;28;20035;-76
2024/01/12 07:11:16;;;;;;;1.45;1.38;;;-4.60;1.00;;;;;;5084780;28;20032;-75
2024/01/12 07:13:42;;;;;;;2.28;2.15;;;-4.50;1.00;;;;;;5079458;28;20064;-77
2024/01/12 07:16:08;;;;;;;2.83;2.30;;;-4.50;1.00;;;;;;5075174;28;20043;-74
2024/01/12 07:18:34;;;;;;;3.30;1.95;;;-4.40;1.00;;;;;;5088048;28;20035;-75
2024/01/12 07:21:03;;;;;;;4.07;3.63;;;-4.40;1.00;;;;;;5082921;28;20028;-75
2024/01/12 07:23:32;;;;;;;7.20;2.70;;;-4.30;1.00;;;;;;5080615;28;20032;-75
2024/01/12 07:26:01;;;;;;;2.28;1.80;;;-4.20;2.50;;;;;;5083277;28;20028;-77
2024/01/12 07:28:27;;;;;;;1.52;0.98;;;-4.20;1.00;;;;;;5085511;28;20047;-75
2024/01/12 07:30:54;;;;;;;1.38;1.25;;;-4.10;1.00;;;;;;5082116;28;20035;-76
2024/01/12 07:33:21;;;;;;;5.57;1.58;;;-4.10;1.00;;;;;;5078927;28;20036;-75
2024/01/12 07:35:47;;;;;;;4.32;2.53;;;-4.10;1.00;;;;;;5076482;28;20033;-75
2024/01/12 07:38:14;;;;;;;6.82;4.10;;;-4.00;1.00;;;;;;5079807;28;20047;-76
2024/01/12 07:40:40;;;;;;;0.85;0.85;;;-3.90;2.80;;;;;;5086520;28;20028;-76
2024/01/12 07:43:06;;;;;;;2.53;2.33;;;-3.90;1.00;;;;;;5080670;28;20035;-74
2024/01/12 07:45:32;;;;;;;2.13;1.25;;;-3.80;12.00;;;;;;5080165;28;20511;-76
2024/01/12 07:47:58;;;;;;;2.58;1.25;;;-3.80;17.00;;;;;;5059476;28;20039;-76
2024/01/12 07:50:24;;;;;;;0.40;0.40;;;-3.70;13.30;;;;;;5085903;28;20025;-76
2024/01/12 07:52:50;;;;;;;0.30;0.30;;;-3.70;8.10;;;;;;5081161;28;20025;-76
2024/01/12 07:55:17;;;;;;;1.35;1.25;;;-3.60;26.00;;;;;;5085332;28;20043;-75
2024/01/12 07:57:43;;;;;;;1.88;1.77;;;-3.60;16.20;;;;;;5079842;28;20033;-77
2024/01/12 08:00:11;;;;;;;1.55;1.45;;;-3.40;41.50;;;;;;5083890;28;20039;-75
2024/01/12 08:02:40;;;;;;;1.63;1.53;;;-3.30;78.80;;;;;;5089507;28;20039;-75
2024/01/12 08:05:07;;;;;;;1.88;1.63;;;-3.20;97.40;;;;;;5083356;28;20032;-75
2024/01/12 08:07:33;;;;;;;2.38;2.17;;;-3.10;97.90;;;;;;5080804;28;20039;-76
2024/01/12 08:09:59;;;;;;;2.13;1.95;;;-3.10;74.50;;;;;;5084847;28;20028;-75
2024/01/12 08:12:25;;;;;;;1.00;1.00;;;-3.00;70.50;;;;;;5077180;28;20094;-75
2024/01/12 08:14:51;;;;;;;4.68;1.98;;;-3.00;63.60;;;;;;5067211;28;20036;-75
2024/01/12 08:17:17;;;;;;;1.92;1.80;;;-2.90;60.00;;;;;;5081425;28;20036;-74
2024/01/12 08:19:43;;;;;;;1.25;1.15;;;-2.80;45.90;;;;;;5077485;28;20036;-76
2024/01/12 08:22:10;;;;;;;6.63;2.47;;;-2.80;33.20;;;;;;5086040;28;20032;-76
2024/01/12 08:24:36;;;;;;;1.45;1.35;;;-2.70;12.80;;;;;;5087466;28;20043;-74
2024/01/12 08:27:03;;;;;;;2.05;1.63;;;-2.70;1.00;;;;;;5082689;28;20024;-75
2024/01/12 08:29:29;;;;;;;12.50;1.95;;;-2.60;1.00;;;;;;5078123;28;20044;-75
2024/01/12 08:31:55;;;;;;;7.15;1.30;;;-2.60;1.00;;;;;;5090805;28;20465;-75
2024/01/12 08:34:22;;;;;;;2.15;0.63;;;-2.60;1.00;;;;;;5078220;28;20024;-75
2024/01/12 08:36:48;;;;;;;1.35;1.27;;;-2.50;1.00;;;;;;5084626;28;20059;-75
2024/01/12 08:39:14;;;;;;;1.48;1.38;;;-2.40;1.00;;;;;;5081584;28;20028;-75
2024/01/12 08:41:41;;;;;;;4.00;3.60;;;-2.40;1.00;;;;;;5075592;28;20024;-75
2024/01/12 08:44:07;;;;;;;1.77;1.67;;;-2.30;1.00;;;;;;5087606;28;20036;-74
2024/01/12 08:46:33;;;;;;;4.78;2.38;;;-2.30;1.00;;;;;;5084953;28;20405;-75
2024/01/12 08:49:00;;;;;;;4.30;3.22;;;-2.30;1.00;;;;;;5083227;28;20028;-75
2024/01/12 08:51:26;;;;;;;2.03;1.92;;;-2.20;1.00;;;;;;5079342;28;20040;-76
2024/01/12 08:53:52;;;;;;;4.00;3.38;;;-2.20;1.00;;;;;;5067642;28;20487;-73
2024/01/12 08:56:19;;;;;;;0.90;0.90;;;-2.20;1.00;;;;;;5086909;28;20032;-77
2024/01/12 08:58:45;;;;;;;5.47;2.58;;;-2.20;1.00;;;;;;5066153;28;20028;-76
2024/01/12 09:01:13;;;;;;;4.43;1.75;;;-2.10;1.00;;;;;;5077810;28;20412;-76
2024/01/12 09:03:39;;;;;;;1.33;1.23;;;-2.10;1.00;;;;;;5075776;28;20496;-74
2024/01/12 09:06:05;;;;;;;6.95;3.42;;;-2.10;1.00;;;;;;5089595;28;20028;-76
2024/01/12 09:08:31;;;;;;;2.97;2.75;;;-2.00;1.00;;;;;;5079008;28;20043;-75
2024/01/12 09:10:58;;;;;;;3.55;1.55;;;-2.00;1.00;;;;;;5080340;28;20043;-76
2024/01/12 09:13:24;;;;;;;0.90;0.52;;;-2.00;1.00;;;;;;5074166;28;20034;-76
2024/01/12 09:15:50;;;;;;;2.60;2.13;;;-2.00;1.00;;;;;;5063272;28;20059;-76
2024/01/12 09:18:16;;;;;;;1.88;1.38;;;-1.90;1.00;;;;;;5079521;28;20341;-76
2024/01/12 09:20:43;;;;;;;3.25;2.90;;;-1.90;1.00;;;;;;5064100;28;20470;-76
2024/01/12 09:23:09;;;;;;;1.27;1.17;;;-1.90;1.00;;;;;;5058953;28;20032;-76
2024/01/12 09:25:35;;;;;;;3.10;2.75;;;-1.80;1.00;;;;;;5076002;28;20032;-77
2024/01/12 09:28:02;;;;;;;3.47;2.55;;;-1.80;1.00;;;;;;5078007;28;20493;-75
2024/01/12 09:30:28;;;;;;;1.40;1.30;;;-1.80;1.00;;;;;;5080835;28;20529;-75
2024/01/12 09:32:54;;;;;;;4.57;3.55;;;-1.70;1.00;;;;;;5060414;28;20055;-75
2024/01/12 09:35:20;;;;;;;1.13;1.08;;;-1.70;1.00;;;;;;5075716;28;20126;-75
2024/01/12 09:37:46;;;;;;;1.40;1.25;;;-1.70;1.00;;;;;;5085065;28;20044;-75
2024/01/12 09:40:13;;;;;;;1.50;1.40;;;-1.60;1.00;;;;;;5083683;28;20032;-75
2024/01/12 09:42:43;;;;;;;13.63;3.28;;;-1.60;1.00;;;;;;5092186;28;20036;-74
2024/01/12 09:45:13;;;;;;;3.40;1.52;;;-1.60;1.00;;;;;;5091487;28;20051;-74
2024/01/12 09:47:40;;;;;;;7.68;2.47;;;-1.50;1.00;;;;;;5084369;28;20473;-73
2024/01/12 09:50:09;;;;;;;4.35;1.98;;;-1.50;1.00;;;;;;5078654;28;20504;-73
2024/01/12 09:52:36;;;;;;;1.40;1.35;;;-1.50;1.00;;;;;;5081485;28;20452;-73
2024/01/12 09:55:02;;;;;;;6.22;2.47;;;-1.40;1.00;;;;;;5077671;28;20032;-73
2024/01/12 09:57:29;;;;;;;10.43;3.55;;;-1.40;1.00;;;;;;5076153;28;20263;-73
2024/01/12 09:59:55;;;;;;;5.85;1.30;;;-1.30;1.00;;;;;;5067231;28;20031;-73
2024/01/12 10:02:22;;;;;;;2.28;2.17;;;-1.30;1.00;;;;;;5086858;28;20028;-74
2024/01/12 10:04:48;;;;;;;0.50;0.50;;;-1.20;1.00;;;;;;5085265;28;20037;-73
2024/01/12 10:07:15;;;;;;;3.38;2.95;;;-1.30;1.00;;;;;;5084072;28;20027;-73
2024/01/12 10:09:41;;;;;;;1.58;1.00;;;-1.30;1.00;;;;;;5084670;28;20035;-73
2024/01/12 10:12:07;;;;;;;5.10;2.88;;;-1.30;1.00;;;;;;5085830;28;20036;-73
2024/01/12 10:14:34;;;;;;;1.42;1.33;;;-1.30;1.00;;;;;;5069288;28;20043;-73
2024/01/12 10:17:00;;;;;;;1.95;1.45;;;-1.20;1.00;;;;;;5086240;28;20032;-73
2024/01/12 10:19:27;;;;;;;2.08;1.88;;;-1.20;1.00;;;;;;5085152;28;20507;-73
2024/01/12 10:21:53;;;;;;;3.67;3.30;;;-1.10;1.00;;;;;;5085348;28;20396;-74
2024/01/12 10:24:21;;;;;;;1.60;1.50;;;-1.00;1.00;;;;;;5081007;28;20488;-73
2024/01/12 10:26:49;;;;;;;1.52;1.42;;;-1.00;1.00;;;;;;5077589;28;20206;-74
2024/01/12 10:29:16;;;;;;;1.08;1.05;;;-0.90;1.00;;;;;;5073431;28;20031;-74
2024/01/12 10:31:44;;;;;;;5.85;2.45;;;-0.90;1.00;;;;;;5068626;28;20476;-74
2024/01/12 10:34:15;;;;;;;2.05;1.75;;;-0.90;1.00;;;;;;5082314;28;20040;-74
2024/01/12 10:36:41;;;;;;;6.15;3.47;;;-0.90;1.00;;;;;;5075248;28;20059;-74
2024/01/12 10:39:09;;;;;;;1.15;1.08;;;-0.90;1.00;;;;;;5074984;28;20024;-74
2024/01/12 10:41:36;;;;;;;1.38;1.30;;;-0.90;1.00;;;;;;5087056;28;20028;-74
2024/01/12 10:44:06;;;;;;;3.13;2.92;;;-0.70;1.00;;;;;;5089605;28;20024;-73
2024/01/12 10:46:40;;;;;;;1.55;1.45;;;-0.70;1.00;;;;;;5071231;28;20472;-74
2024/01/12 10:49:17;;;;;;;1.92;1.83;;;-0.60;1.00;;;;;;5087168;28;20028;-74
2024/01/12 10:51:58;;;;;;;6.28;3.33;;;-0.70;1.00;;;;;;5056564;28;20051;-74
2024/01/12 10:54:54;;;;;;;15.95;2.53;;;-0.70;1.00;;;;;;5086678;28;20040;-74
2024/01/12 10:57:22;;;;;;;0.90;0.90;;;-0.60;1.00;;;;;;5079187;28;20680;-74
2024/01/12 10:59:49;;;;;;;1.58;1.42;;;-0.60;1.00;;;;;;5076094;28;20037;-74
2024/01/12 11:02:16;;;;;;;2.97;2.78;;;-0.50;1.00;;;;;;5079589;28;20041;-75
2024/01/12 11:04:43;;;;;;;1.05;1.05;;;-0.50;99.90;;;;;;5082034;28;20047;-75
2024/01/12 11:07:10;;;;;;;1.85;1.52;;;-0.50;99.90;;;;;;5063254;28;20040;-76
2024/01/12 11:09:37;;;;;;;2.72;1.38;;;-0.50;99.90;;;;;;5077636;28;20067;-76
2024/01/12 11:12:19;;;;;;;2.28;1.50;;;-0.50;99.90;;;;;;5073787;28;20033;-76
2024/01/12 11:14:45;;;;;;;3.08;2.80;;;-0.60;99.90;;;;;;5087817;28;20052;-76
2024/01/12 11:17:12;;;;;;;0.40;0.40;;;-0.50;1.00;;;;;;5081844;28;20033;-75
2024/01/12 11:19:38;;;;;;;1.85;1.33;;;-0.50;1.00;;;;;;5061958;28;20025;-75
2024/01/12 11:22:08;;;;;;;1.73;1.63;;;-0.50;1.00;;;;;;5082436;28;20037;-75
2024/01/12 11:24:35;;;;;;;3.10;2.63;;;-0.50;99.90;;;;;;5094456;28;20035;-75
2024/01/12 11:27:03;;;;;;;0.30;0.30;;;-0.40;99.90;;;;;;5073822;28;20515;-76
2024/01/12 11:29:35;;;;;;;4.05;2.88;;;-0.40;99.90;;;;;;5082706;28;20043;-76
2024/01/12 11:32:05;;;;;;;1.23;1.23;;;-0.30;1.00;;;;;;5080490;28;20029;-76
2024/01/12 11:34:37;;;;;;;1.95;1.35;;;-0.30;1.00;;;;;;5086220;28;20408;-76
2024/01/12 11:37:07;;;;;;;4.72;2.47;;;-0.40;1.00;;;;;;5089194;28;20056;-76
2024/01/12 11:39:37;;;;;;;6.25;2.38;;;-0.40;1.00;;;;;;5084813;28;20031;-75
2024/01/12 11:42:07;;;;;;;0.75;0.75;;;-0.30;1.00;;;;;;5063006;28;20051;-75
2024/01/12 11:44:35;;;;;;;1.85;1.75;;;-0.30;1.00;;;;;;5059356;28;20039;-76
2024/01/12 11:47:05;;;;;;;1.60;1.50;;;-0.30;1.00;;;;;;5090677;28;20043;-76
2024/01/12 11:49:31;;;;;;;6.68;2.85;;;-0.20;99.90;;;;;;5069248;28;20036;-76
2024/01/12 11:52:04;;;;;;;1.65;1.55;;;-0.30;99.90;;;;;;5083379;28;20032;-74
2024/01/12 11:54:30;;;;;;;1.35;1.17;;;-0.30;99.90;;;;;;5078328;28;20201;-76
2024/01/12 11:56:56;;;;;;;1.73;1.63;;;-0.40;99.90;;;;;;5085212;28;20032;-76
2024/01/12 11:59:23;;;;;;;0.90;0.85;;;-0.40;99.90;;;;;;5088644;28;20040;-74
2024/01/12 12:01:49;;;;;;;2.95;2.55;;;-0.40;99.90;;;;;;5083084;28;20049;-76
2024/01/12 12:04:17;;;;;;;3.95;2.50;;;-0.40;99.90;;;;;;5079804;28;20037;-76
2024/01/12 12:06:46;;;;;;;2.22;2.13;;;-0.30;99.90;;;;;;5076212;28;20457;-76
2024/01/12 12:09:13;;;;;;;1.58;1.48;;;-0.30;99.90;;;;;;5084164;28;20028;-76
2024/01/12 12:11:40;;;;;;;21.25;12.30;;;-0.40;1.00;;;;;;5083559;28;20477;-76
2024/01/12 12:14:06;;;;;;;12.68;11.15;;;-0.30;1.00;;;;;;5081890;28;20044;-76
2024/01/12 12:16:33;;;;;;;5.60;5.05;;;-0.30;1.00;;;;;;5058727;28;20028;-76
2024/01/12 12:18:59;;;;;;;3.92;3.47;;;-0.20;99.90;;;;;;5082236;28;20033;-75
2024/01/12 12:21:26;;;;;;;5.55;1.50;;;-0.20;99.90;;;;;;5096237;28;20130;-75
2024/01/12 12:23:52;;;;;;;2.67;2.42;;;-0.20;99.90;;;;;;5103618;28;20062;-76
2024/01/12 12:26:19;;;;;;;1.92;1.60;;;-0.20;99.90;;;;;;5061435;28;20035;-76
2024/01/12 12:28:45;;;;;;;3.40;3.03;;;-0.10;99.90;;;;;;5082577;28;20032;-76
2024/01/12 12:31:12;;;;;;;5.50;3.15;;;-0.10;99.90;;;;;;5087305;28;20040;-75
2024/01/12 12:33:43;;;;;;;4.88;2.50;;;-0.10;99.90;;;;;;5082844;28;20039;-74
2024/01/12 12:36:09;;;;;;;;;;;0.00;99.90;;;;;;5080190;28;20040;-76
2024/01/12 12:38:37;;;;;;;2.90;2.70;;;-0.10;99.90;;;;;;5076102;28;20289;-73
2024/01/12 12:41:05;;;;;;;2.35;2.17;;;-0.10;99.90;;;;;;5077274;28;20035;-73
2024/01/12 12:43:33;;;;;;;3.58;2.88;;;-0.20;99.90;;;;;;5084271;28;20040;-72
2024/01/12 12:46:00;;;;;;;1.95;1.83;;;-0.20;99.90;;;;;;5082391;28;20389;-72
2024/01/12 12:48:29;;;;;;;1.95;1.85;;;-0.30;99.90;;;;;;5077002;28;20033;-73
2024/01/12 12:50:55;;;;;;;1.67;1.58;;;-0.30;99.90;;;;;;5080557;28;20473;-73